sensor_id;sensor_type;location;lat;lon;timestamp;P1;durP1;ratioP1;P2;durP2;ratioP2
40971;SDS011;26701;47.408;19.174;2023-04-01T00:01:55;5.15;;;3.05;;
40971;SDS011;26701;47.408;19.174;2023-04-01T00:04:21;5.60;;;2.80;;
40971;SDS011;26701;47.408;19.174;2023-04-01T00:06:48;5.05;;;2.92;;
40971;SDS011;26701;47.408;19.174;2023-04-01T00:09:14;5.78;;;2.75;;
40971;SDS011;26701;47.408;19.174;2023-04-01T00:11:40;5.90;;;2.88;;
40971;SDS011;26701;47.408;19.174;2023-04-01T00:14:06;5.95;;;2.67;;
40971;SDS011;26701;47.408;19.174;2023-04-01T00:16:33;4.93;;;2.72;;
40971;SDS011;26701;47.408;19.174;2023-04-01T00:18:59;6.03;;;2.55;;
40971;SDS011;26701;47.408;19.174;2023-04-01T00:21:25;7.57;;;3.60;;
40971;SDS011;26701;47.408;19.174;2023-04-01T00:23:51;6.15;;;3.25;;
40971;SDS011;26701;47.408;19.174;2023-04-01T00:26:18;6.82;;;2.88;;
40971;SDS011;26701;47.408;19.174;2023-04-01T00:28:46;5.53;;;3.03;;
40971;SDS011;26701;47.408;19.174;2023-04-01T00:31:12;8.30;;;3.03;;
40971;SDS011;26701;47.408;19.174;2023-04-01T00:33:40;6.75;;;3.38;;
40971;SDS011;26701;47.408;19.174;2023-04-01T00:36:16;4.43;;;3.00;;
40971;SDS011;26701;47.408;19.174;2023-04-01T00:38:43;7.55;;;3.35;;
40971;SDS011;26701;47.408;19.174;2023-04-01T00:41:10;6.18;;;3.13;;
40971;SDS011;26701;47.408;19.174;2023-04-01T00:43:39;6.07;;;3.17;;
40971;SDS011;26701;47.408;19.174;2023-04-01T00:46:05;8.95;;;4.05;;
40971;SDS011;26701;47.408;19.174;2023-04-01T00:48:42;5.47;;;3.33;;
40971;SDS011;26701;47.408;19.174;2023-04-01T00:51:19;8.55;;;3.95;;
40971;SDS011;26701;47.408;19.174;2023-04-01T00:53:50;6.03;;;3.20;;
40971;SDS011;26701;47.408;19.174;2023-04-01T00:56:18;8.15;;;3.97;;
40971;SDS011;26701;47.408;19.174;2023-04-01T00:59:17;6.55;;;3.33;;
40971;SDS011;26701;47.408;19.174;2023-04-01T01:01:47;5.78;;;3.38;;
40971;SDS011;26701;47.408;19.174;2023-04-01T01:04:23;7.85;;;3.28;;
40971;SDS011;26701;47.408;19.174;2023-04-01T01:09:21;7.90;;;4.10;;
40971;SDS011;26701;47.408;19.174;2023-04-01T01:25:30;8.98;;;4.38;;
40971;SDS011;26701;47.408;19.174;2023-04-01T01:28:20;10.82;;;4.25;;
40971;SDS011;26701;47.408;19.174;2023-04-01T01:30:49;6.22;;;4.30;;
40971;SDS011;26701;47.408;19.174;2023-04-01T01:36:04;8.43;;;4.60;;
40971;SDS011;26701;47.408;19.174;2023-04-01T01:38:36;6.63;;;3.80;;
40971;SDS011;26701;47.408;19.174;2023-04-01T01:41:04;8.70;;;4.30;;
40971;SDS011;26701;47.408;19.174;2023-04-01T01:43:33;7.72;;;3.97;;
40971;SDS011;26701;47.408;19.174;2023-04-01T01:46:05;6.88;;;4.13;;
40971;SDS011;26701;47.408;19.174;2023-04-01T01:48:40;8.43;;;3.63;;
40971;SDS011;26701;47.408;19.174;2023-04-01T01:51:08;15.27;;;6.00;;
40971;SDS011;26701;47.408;19.174;2023-04-01T01:53:34;12.95;;;5.97;;
40971;SDS011;26701;47.408;19.174;2023-04-01T01:56:01;10.30;;;5.43;;
40971;SDS011;26701;47.408;19.174;2023-04-01T01:58:32;20.77;;;7.78;;
40971;SDS011;26701;47.408;19.174;2023-04-01T02:01:07;8.63;;;5.65;;
40971;SDS011;26701;47.408;19.174;2023-04-01T02:03:36;10.02;;;5.63;;
40971;SDS011;26701;47.408;19.174;2023-04-01T02:06:06;11.80;;;4.80;;
40971;SDS011;26701;47.408;19.174;2023-04-01T02:08:48;8.40;;;4.18;;
40971;SDS011;26701;47.408;19.174;2023-04-01T02:11:17;9.75;;;5.05;;
40971;SDS011;26701;47.408;19.174;2023-04-01T02:13:56;9.52;;;4.65;;
40971;SDS011;26701;47.408;19.174;2023-04-01T02:16:28;9.82;;;4.45;;
40971;SDS011;26701;47.408;19.174;2023-04-01T02:18:59;7.28;;;4.18;;
40971;SDS011;26701;47.408;19.174;2023-04-01T02:21:28;10.27;;;4.68;;
40971;SDS011;26701;47.408;19.174;2023-04-01T02:23:56;6.97;;;3.80;;
40971;SDS011;26701;47.408;19.174;2023-04-01T02:26:24;8.05;;;4.90;;
40971;SDS011;26701;47.408;19.174;2023-04-01T02:28:52;8.68;;;4.90;;
40971;SDS011;26701;47.408;19.174;2023-04-01T02:31:19;8.77;;;5.07;;
40971;SDS011;26701;47.408;19.174;2023-04-01T02:33:46;7.38;;;4.45;;
40971;SDS011;26701;47.408;19.174;2023-04-01T02:36:13;8.93;;;4.93;;
40971;SDS011;26701;47.408;19.174;2023-04-01T02:38:41;8.97;;;5.27;;
40971;SDS011;26701;47.408;19.174;2023-04-01T02:41:09;8.40;;;4.55;;
40971;SDS011;26701;47.408;19.174;2023-04-01T02:43:36;11.93;;;4.65;;
40971;SDS011;26701;47.408;19.174;2023-04-01T02:46:02;9.25;;;5.22;;
40971;SDS011;26701;47.408;19.174;2023-04-01T02:48:28;10.02;;;4.65;;
40971;SDS011;26701;47.408;19.174;2023-04-01T02:50:54;9.32;;;5.38;;
40971;SDS011;26701;47.408;19.174;2023-04-01T02:53:21;7.47;;;4.53;;
40971;SDS011;26701;47.408;19.174;2023-04-01T02:55:47;10.05;;;4.93;;
40971;SDS011;26701;47.408;19.174;2023-04-01T02:58:16;9.30;;;4.80;;
40971;SDS011;26701;47.408;19.174;2023-04-01T03:00:42;11.55;;;5.05;;
40971;SDS011;26701;47.408;19.174;2023-04-01T03:03:08;10.13;;;6.38;;
40971;SDS011;26701;47.408;19.174;2023-04-01T03:05:35;8.07;;;4.93;;
40971;SDS011;26701;47.408;19.174;2023-04-01T03:08:01;9.48;;;4.82;;
40971;SDS011;26701;47.408;19.174;2023-04-01T03:10:27;9.35;;;4.80;;
40971;SDS011;26701;47.408;19.174;2023-04-01T03:12:53;10.00;;;5.95;;
40971;SDS011;26701;47.408;19.174;2023-04-01T03:15:20;8.38;;;4.72;;
40971;SDS011;26701;47.408;19.174;2023-04-01T03:17:46;7.35;;;4.93;;
40971;SDS011;26701;47.408;19.174;2023-04-01T03:20:12;9.27;;;5.50;;
40971;SDS011;26701;47.408;19.174;2023-04-01T03:22:39;9.13;;;4.80;;
40971;SDS011;26701;47.408;19.174;2023-04-01T03:25:05;9.35;;;5.00;;
40971;SDS011;26701;47.408;19.174;2023-04-01T03:27:33;9.45;;;5.97;;
40971;SDS011;26701;47.408;19.174;2023-04-01T03:30:01;7.68;;;4.72;;
40971;SDS011;26701;47.408;19.174;2023-04-01T03:32:28;10.88;;;5.57;;
40971;SDS011;26701;47.408;19.174;2023-04-01T03:34:54;9.23;;;4.90;;
40971;SDS011;26701;47.408;19.174;2023-04-01T03:37:20;9.75;;;6.20;;
40971;SDS011;26701;47.408;19.174;2023-04-01T03:39:46;9.77;;;5.75;;
40971;SDS011;26701;47.408;19.174;2023-04-01T03:42:12;9.32;;;6.07;;
40971;SDS011;26701;47.408;19.174;2023-04-01T03:44:38;10.23;;;6.25;;
40971;SDS011;26701;47.408;19.174;2023-04-01T03:47:06;10.35;;;5.85;;
40971;SDS011;26701;47.408;19.174;2023-04-01T03:49:34;9.40;;;5.70;;
40971;SDS011;26701;47.408;19.174;2023-04-01T03:52:00;14.38;;;6.97;;
40971;SDS011;26701;47.408;19.174;2023-04-01T03:54:27;13.00;;;6.70;;
40971;SDS011;26701;47.408;19.174;2023-04-01T03:56:53;16.83;;;8.55;;
40971;SDS011;26701;47.408;19.174;2023-04-01T03:59:20;12.02;;;6.65;;
40971;SDS011;26701;47.408;19.174;2023-04-01T04:01:46;11.50;;;7.40;;
40971;SDS011;26701;47.408;19.174;2023-04-01T04:04:13;12.40;;;6.78;;
40971;SDS011;26701;47.408;19.174;2023-04-01T04:06:40;11.20;;;6.22;;
40971;SDS011;26701;47.408;19.174;2023-04-01T04:09:06;12.38;;;6.32;;
40971;SDS011;26701;47.408;19.174;2023-04-01T04:11:32;13.85;;;7.25;;
40971;SDS011;26701;47.408;19.174;2023-04-01T04:13:59;15.90;;;7.80;;
40971;SDS011;26701;47.408;19.174;2023-04-01T04:16:25;23.05;;;11.30;;
40971;SDS011;26701;47.408;19.174;2023-04-01T04:18:56;21.90;;;11.18;;
40971;SDS011;26701;47.408;19.174;2023-04-01T04:21:22;16.98;;;9.18;;
40971;SDS011;26701;47.408;19.174;2023-04-01T04:23:48;16.25;;;8.75;;
40971;SDS011;26701;47.408;19.174;2023-04-01T04:26:17;14.43;;;7.05;;
40971;SDS011;26701;47.408;19.174;2023-04-01T04:28:51;12.90;;;7.72;;
40971;SDS011;26701;47.408;19.174;2023-04-01T04:31:19;17.83;;;7.25;;
40971;SDS011;26701;47.408;19.174;2023-04-01T04:33:46;28.58;;;11.57;;
40971;SDS011;26701;47.408;19.174;2023-04-01T04:36:14;39.97;;;16.13;;
40971;SDS011;26701;47.408;19.174;2023-04-01T04:38:40;34.80;;;15.07;;
40971;SDS011;26701;47.408;19.174;2023-04-01T04:41:10;23.77;;;11.88;;
40971;SDS011;26701;47.408;19.174;2023-04-01T04:43:42;21.00;;;9.85;;
40971;SDS011;26701;47.408;19.174;2023-04-01T04:46:15;18.83;;;9.50;;
40971;SDS011;26701;47.408;19.174;2023-04-01T04:48:41;18.42;;;7.40;;
40971;SDS011;26701;47.408;19.174;2023-04-01T04:51:12;17.77;;;7.47;;
40971;SDS011;26701;47.408;19.174;2023-04-01T04:53:39;12.63;;;7.25;;
40971;SDS011;26701;47.408;19.174;2023-04-01T04:56:05;10.43;;;6.90;;
40971;SDS011;26701;47.408;19.174;2023-04-01T04:58:39;14.95;;;7.68;;
40971;SDS011;26701;47.408;19.174;2023-04-01T05:01:09;14.50;;;6.88;;
40971;SDS011;26701;47.408;19.174;2023-04-01T05:03:37;13.38;;;7.10;;
40971;SDS011;26701;47.408;19.174;2023-04-01T05:06:04;12.68;;;6.57;;
40971;SDS011;26701;47.408;19.174;2023-04-01T05:08:31;12.82;;;6.20;;
40971;SDS011;26701;47.408;19.174;2023-04-01T05:10:58;10.10;;;6.32;;
40971;SDS011;26701;47.408;19.174;2023-04-01T05:13:24;10.02;;;6.18;;
40971;SDS011;26701;47.408;19.174;2023-04-01T05:15:51;11.68;;;6.18;;
40971;SDS011;26701;47.408;19.174;2023-04-01T05:18:17;12.73;;;6.80;;
40971;SDS011;26701;47.408;19.174;2023-04-01T05:20:47;13.07;;;6.95;;
40971;SDS011;26701;47.408;19.174;2023-04-01T05:23:17;9.93;;;6.07;;
40971;SDS011;26701;47.408;19.174;2023-04-01T05:25:44;13.88;;;6.60;;
40971;SDS011;26701;47.408;19.174;2023-04-01T05:28:11;11.40;;;7.85;;
40971;SDS011;26701;47.408;19.174;2023-04-01T05:30:39;13.27;;;6.35;;
40971;SDS011;26701;47.408;19.174;2023-04-01T05:33:19;10.23;;;6.00;;
40971;SDS011;26701;47.408;19.174;2023-04-01T05:35:45;10.85;;;5.53;;
40971;SDS011;26701;47.408;19.174;2023-04-01T05:38:12;11.30;;;5.43;;
40971;SDS011;26701;47.408;19.174;2023-04-01T05:40:38;10.35;;;5.60;;
40971;SDS011;26701;47.408;19.174;2023-04-01T05:43:04;11.00;;;6.35;;
40971;SDS011;26701;47.408;19.174;2023-04-01T05:45:30;10.70;;;5.85;;
40971;SDS011;26701;47.408;19.174;2023-04-01T05:47:56;8.38;;;4.82;;
40971;SDS011;26701;47.408;19.174;2023-04-01T05:50:22;9.00;;;4.53;;
40971;SDS011;26701;47.408;19.174;2023-04-01T05:52:49;9.68;;;5.32;;
40971;SDS011;26701;47.408;19.174;2023-04-01T05:55:15;6.60;;;4.18;;
40971;SDS011;26701;47.408;19.174;2023-04-01T05:57:42;7.47;;;4.35;;
40971;SDS011;26701;47.408;19.174;2023-04-01T06:00:11;7.50;;;4.30;;
40971;SDS011;26701;47.408;19.174;2023-04-01T06:02:40;8.13;;;4.32;;
40971;SDS011;26701;47.408;19.174;2023-04-01T06:07:37;9.85;;;4.25;;
40971;SDS011;26701;47.408;19.174;2023-04-01T06:10:08;7.40;;;4.43;;
40971;SDS011;26701;47.408;19.174;2023-04-01T06:12:39;6.80;;;3.95;;
40971;SDS011;26701;47.408;19.174;2023-04-01T06:15:23;7.15;;;4.13;;
40971;SDS011;26701;47.408;19.174;2023-04-01T06:21:07;4.88;;;2.67;;
40971;SDS011;26701;47.408;19.174;2023-04-01T06:26:39;4.20;;;1.70;;
40971;SDS011;26701;47.408;19.174;2023-04-01T06:42:56;4.47;;;2.00;;
40971;SDS011;26701;47.408;19.174;2023-04-01T06:49:01;4.90;;;1.73;;
40971;SDS011;26701;47.408;19.174;2023-04-01T06:55:02;5.78;;;2.42;;
40971;SDS011;26701;47.408;19.174;2023-04-01T06:58:01;4.97;;;1.67;;
40971;SDS011;26701;47.408;19.174;2023-04-01T07:05:30;4.78;;;2.28;;
40971;SDS011;26701;47.408;19.174;2023-04-01T07:07:57;5.10;;;2.60;;
40971;SDS011;26701;47.408;19.174;2023-04-01T07:11:09;6.20;;;2.50;;
40971;SDS011;26701;47.408;19.174;2023-04-01T07:16:45;1.98;;;1.42;;
40971;SDS011;26701;47.408;19.174;2023-04-01T07:24:50;2.10;;;1.15;;
40971;SDS011;26701;47.408;19.174;2023-04-01T07:27:17;6.10;;;1.30;;
40971;SDS011;26701;47.408;19.174;2023-04-01T07:29:44;3.13;;;1.30;;
40971;SDS011;26701;47.408;19.174;2023-04-01T07:58:08;5.05;;;1.30;;
40971;SDS011;26701;47.408;19.174;2023-04-01T08:05:54;2.95;;;1.52;;
40971;SDS011;26701;47.408;19.174;2023-04-01T08:14:39;3.30;;;1.50;;
40971;SDS011;26701;47.408;19.174;2023-04-01T08:22:36;1.98;;;1.17;;
40971;SDS011;26701;47.408;19.174;2023-04-01T08:25:20;3.47;;;1.65;;
40971;SDS011;26701;47.408;19.174;2023-04-01T08:27:51;4.70;;;1.50;;
40971;SDS011;26701;47.408;19.174;2023-04-01T08:30:25;4.25;;;1.58;;
40971;SDS011;26701;47.408;19.174;2023-04-01T08:49:50;2.42;;;1.00;;
40971;SDS011;26701;47.408;19.174;2023-04-01T08:52:52;2.42;;;0.90;;
40971;SDS011;26701;47.408;19.174;2023-04-01T08:55:24;1.98;;;1.00;;
40971;SDS011;26701;47.408;19.174;2023-04-01T09:03:53;4.95;;;1.88;;
40971;SDS011;26701;47.408;19.174;2023-04-01T09:09:17;2.47;;;1.10;;
40971;SDS011;26701;47.408;19.174;2023-04-01T09:37:35;1.77;;;1.17;;
40971;SDS011;26701;47.408;19.174;2023-04-01T09:43:16;5.88;;;1.95;;
40971;SDS011;26701;47.408;19.174;2023-04-01T09:49:05;3.28;;;1.67;;
40971;SDS011;26701;47.408;19.174;2023-04-01T10:14:18;3.00;;;1.75;;
40971;SDS011;26701;47.408;19.174;2023-04-01T10:19:55;2.83;;;1.48;;
40971;SDS011;26701;47.408;19.174;2023-04-01T10:31:07;3.75;;;1.85;;
40971;SDS011;26701;47.408;19.174;2023-04-01T10:36:46;2.28;;;1.70;;
40971;SDS011;26701;47.408;19.174;2023-04-01T10:48:19;4.10;;;1.95;;
40971;SDS011;26701;47.408;19.174;2023-04-01T10:56:39;5.82;;;1.92;;
40971;SDS011;26701;47.408;19.174;2023-04-01T11:14:32;5.18;;;2.22;;
40971;SDS011;26701;47.408;19.174;2023-04-01T11:19:45;6.57;;;2.65;;
40971;SDS011;26701;47.408;19.174;2023-04-01T11:30:49;4.93;;;1.83;;
40971;SDS011;26701;47.408;19.174;2023-04-01T11:42:30;6.13;;;2.17;;
40971;SDS011;26701;47.408;19.174;2023-04-01T11:55:43;2.28;;;0.98;;
40971;SDS011;26701;47.408;19.174;2023-04-01T12:01:30;4.57;;;1.80;;
40971;SDS011;26701;47.408;19.174;2023-04-01T12:04:03;5.22;;;2.60;;
40971;SDS011;26701;47.408;19.174;2023-04-01T12:09:21;5.45;;;2.20;;
40971;SDS011;26701;47.408;19.174;2023-04-01T12:19:54;2.13;;;1.05;;
40971;SDS011;26701;47.408;19.174;2023-04-01T12:22:46;3.03;;;1.50;;
40971;SDS011;26701;47.408;19.174;2023-04-01T12:30:58;4.03;;;1.58;;
40971;SDS011;26701;47.408;19.174;2023-04-01T12:41:14;3.70;;;2.35;;
40971;SDS011;26701;47.408;19.174;2023-04-01T12:44:02;7.05;;;1.60;;
40971;SDS011;26701;47.408;19.174;2023-04-01T13:04:51;5.65;;;1.85;;
40971;SDS011;26701;47.408;19.174;2023-04-01T13:15:37;4.07;;;2.08;;
40971;SDS011;26701;47.408;19.174;2023-04-01T13:20:58;3.45;;;2.00;;
40971;SDS011;26701;47.408;19.174;2023-04-01T13:26:03;3.65;;;1.60;;
40971;SDS011;26701;47.408;19.174;2023-04-01T13:31:26;3.95;;;1.90;;
40971;SDS011;26701;47.408;19.174;2023-04-01T13:34:00;3.78;;;1.33;;
40971;SDS011;26701;47.408;19.174;2023-04-01T13:42:23;3.83;;;2.10;;
40971;SDS011;26701;47.408;19.174;2023-04-01T13:44:54;5.10;;;2.22;;
40971;SDS011;26701;47.408;19.174;2023-04-01T13:59:15;3.03;;;1.60;;
40971;SDS011;26701;47.408;19.174;2023-04-01T14:01:49;3.33;;;1.90;;
40971;SDS011;26701;47.408;19.174;2023-04-01T14:07:01;2.72;;;1.55;;
40971;SDS011;26701;47.408;19.174;2023-04-01T14:10:18;2.60;;;1.40;;
40971;SDS011;26701;47.408;19.174;2023-04-01T14:15:15;2.65;;;1.58;;
40971;SDS011;26701;47.408;19.174;2023-04-01T14:17:55;1.98;;;1.13;;
40971;SDS011;26701;47.408;19.174;2023-04-01T14:20:30;2.63;;;1.35;;
40971;SDS011;26701;47.408;19.174;2023-04-01T14:49:36;1.90;;;1.40;;
40971;SDS011;26701;47.408;19.174;2023-04-01T14:52:04;2.60;;;1.42;;
40971;SDS011;26701;47.408;19.174;2023-04-01T14:54:32;3.97;;;1.30;;
40971;SDS011;26701;47.408;19.174;2023-04-01T14:57:10;3.33;;;1.23;;
40971;SDS011;26701;47.408;19.174;2023-04-01T14:59:39;3.08;;;1.80;;
40971;SDS011;26701;47.408;19.174;2023-04-01T15:08:10;26.15;;;4.07;;
40971;SDS011;26701;47.408;19.174;2023-04-01T15:20:54;2.92;;;1.10;;
40971;SDS011;26701;47.408;19.174;2023-04-01T15:50:13;2.08;;;1.50;;
40971;SDS011;26701;47.408;19.174;2023-04-01T15:55:48;1.48;;;1.13;;
40971;SDS011;26701;47.408;19.174;2023-04-01T16:19:53;2.28;;;1.50;;
40971;SDS011;26701;47.408;19.174;2023-04-01T16:22:32;2.35;;;1.48;;
40971;SDS011;26701;47.408;19.174;2023-04-01T16:25:21;2.22;;;1.17;;
40971;SDS011;26701;47.408;19.174;2023-04-01T16:30:46;1.95;;;1.02;;
40971;SDS011;26701;47.408;19.174;2023-04-01T16:36:11;1.83;;;1.10;;
40971;SDS011;26701;47.408;19.174;2023-04-01T16:41:33;1.85;;;0.95;;
40971;SDS011;26701;47.408;19.174;2023-04-01T16:46:52;2.53;;;1.45;;
40971;SDS011;26701;47.408;19.174;2023-04-01T16:57:03;4.10;;;1.17;;
40971;SDS011;26701;47.408;19.174;2023-04-01T16:59:36;2.80;;;1.58;;
40971;SDS011;26701;47.408;19.174;2023-04-01T17:04:34;3.65;;;2.13;;
40971;SDS011;26701;47.408;19.174;2023-04-01T17:07:11;4.82;;;2.38;;
40971;SDS011;26701;47.408;19.174;2023-04-01T17:20:40;5.32;;;1.90;;
40971;SDS011;26701;47.408;19.174;2023-04-01T17:23:25;3.67;;;1.48;;
40971;SDS011;26701;47.408;19.174;2023-04-01T17:31:45;3.65;;;1.23;;
40971;SDS011;26701;47.408;19.174;2023-04-01T17:36:44;3.13;;;1.60;;
40971;SDS011;26701;47.408;19.174;2023-04-01T17:39:26;4.72;;;2.72;;
40971;SDS011;26701;47.408;19.174;2023-04-01T17:42:19;3.28;;;1.60;;
40971;SDS011;26701;47.408;19.174;2023-04-01T17:44:49;5.15;;;2.22;;
40971;SDS011;26701;47.408;19.174;2023-04-01T17:52:29;5.85;;;2.60;;
40971;SDS011;26701;47.408;19.174;2023-04-01T18:05:35;6.55;;;3.55;;
40971;SDS011;26701;47.408;19.174;2023-04-01T18:11:00;6.65;;;4.22;;
40971;SDS011;26701;47.408;19.174;2023-04-01T18:21:50;4.35;;;2.38;;
40971;SDS011;26701;47.408;19.174;2023-04-01T18:29:30;6.15;;;2.65;;
40971;SDS011;26701;47.408;19.174;2023-04-01T18:32:11;5.43;;;2.83;;
40971;SDS011;26701;47.408;19.174;2023-04-01T18:34:43;5.63;;;2.97;;
40971;SDS011;26701;47.408;19.174;2023-04-01T18:37:17;6.93;;;3.92;;
40971;SDS011;26701;47.408;19.174;2023-04-01T18:39:52;7.60;;;3.20;;
40971;SDS011;26701;47.408;19.174;2023-04-01T18:42:29;4.93;;;3.03;;
40971;SDS011;26701;47.408;19.174;2023-04-01T18:45:26;7.20;;;3.28;;
40971;SDS011;26701;47.408;19.174;2023-04-01T18:48:13;6.00;;;3.28;;
40971;SDS011;26701;47.408;19.174;2023-04-01T18:51:01;8.65;;;3.80;;
40971;SDS011;26701;47.408;19.174;2023-04-01T18:53:30;10.13;;;3.75;;
40971;SDS011;26701;47.408;19.174;2023-04-01T18:56:02;8.60;;;3.90;;
40971;SDS011;26701;47.408;19.174;2023-04-01T19:03:28;11.43;;;4.40;;
40971;SDS011;26701;47.408;19.174;2023-04-01T19:05:59;21.67;;;4.65;;
40971;SDS011;26701;47.408;19.174;2023-04-01T19:08:33;11.13;;;4.53;;
40971;SDS011;26701;47.408;19.174;2023-04-01T19:14:12;11.88;;;4.45;;
40971;SDS011;26701;47.408;19.174;2023-04-01T19:22:17;11.23;;;4.80;;
40971;SDS011;26701;47.408;19.174;2023-04-01T19:34:57;15.73;;;7.05;;
40971;SDS011;26701;47.408;19.174;2023-04-01T19:37:39;13.75;;;7.97;;
40971;SDS011;26701;47.408;19.174;2023-04-01T19:42:40;11.85;;;6.53;;
40971;SDS011;26701;47.408;19.174;2023-04-01T19:45:26;13.57;;;7.18;;
40971;SDS011;26701;47.408;19.174;2023-04-01T19:50:34;14.57;;;7.22;;
40971;SDS011;26701;47.408;19.174;2023-04-01T19:53:30;13.85;;;7.18;;
40971;SDS011;26701;47.408;19.174;2023-04-01T19:56:11;13.95;;;6.93;;
40971;SDS011;26701;47.408;19.174;2023-04-01T20:01:22;14.20;;;7.88;;
40971;SDS011;26701;47.408;19.174;2023-04-01T20:04:08;12.57;;;7.38;;
40971;SDS011;26701;47.408;19.174;2023-04-01T20:09:43;11.80;;;6.18;;
40971;SDS011;26701;47.408;19.174;2023-04-01T20:13:13;13.23;;;6.95;;
40971;SDS011;26701;47.408;19.174;2023-04-01T20:17:50;12.93;;;6.97;;
40971;SDS011;26701;47.408;19.174;2023-04-01T20:25:12;12.10;;;6.60;;
40971;SDS011;26701;47.408;19.174;2023-04-01T20:27:47;14.63;;;7.90;;
40971;SDS011;26701;47.408;19.174;2023-04-01T20:30:52;11.18;;;6.30;;
40971;SDS011;26701;47.408;19.174;2023-04-01T21:05:56;28.75;;;12.40;;
40971;SDS011;26701;47.408;19.174;2023-04-01T21:16:36;30.13;;;14.05;;
40971;SDS011;26701;47.408;19.174;2023-04-01T21:20:07;21.00;;;12.15;;
40971;SDS011;26701;47.408;19.174;2023-04-01T21:26:57;23.35;;;12.15;;
40971;SDS011;26701;47.408;19.174;2023-04-01T21:32:18;27.10;;;13.60;;
40971;SDS011;26701;47.408;19.174;2023-04-01T21:38:00;21.77;;;12.32;;
40971;SDS011;26701;47.408;19.174;2023-04-01T21:45:55;20.95;;;10.90;;
40971;SDS011;26701;47.408;19.174;2023-04-01T21:57:22;23.88;;;12.90;;
40971;SDS011;26701;47.408;19.174;2023-04-01T22:07:20;18.17;;;8.55;;
40971;SDS011;26701;47.408;19.174;2023-04-01T22:17:58;10.70;;;6.53;;
40971;SDS011;26701;47.408;19.174;2023-04-01T22:28:01;8.30;;;4.80;;
40971;SDS011;26701;47.408;19.174;2023-04-01T22:35:42;13.48;;;5.68;;
40971;SDS011;26701;47.408;19.174;2023-04-01T22:40:57;10.07;;;5.57;;
40971;SDS011;26701;47.408;19.174;2023-04-01T22:43:41;10.07;;;4.95;;
40971;SDS011;26701;47.408;19.174;2023-04-01T22:56:51;11.73;;;5.90;;
40971;SDS011;26701;47.408;19.174;2023-04-01T22:59:26;11.10;;;5.22;;
40971;SDS011;26701;47.408;19.174;2023-04-01T23:01:59;8.93;;;3.72;;
40971;SDS011;26701;47.408;19.174;2023-04-01T23:04:29;4.90;;;2.88;;
40971;SDS011;26701;47.408;19.174;2023-04-01T23:07:00;3.45;;;2.15;;
40971;SDS011;26701;47.408;19.174;2023-04-01T23:09:31;6.93;;;2.28;;
40971;SDS011;26701;47.408;19.174;2023-04-01T23:12:09;4.75;;;2.08;;
40971;SDS011;26701;47.408;19.174;2023-04-01T23:14:42;4.40;;;1.90;;
40971;SDS011;26701;47.408;19.174;2023-04-01T23:17:25;4.15;;;1.80;;
40971;SDS011;26701;47.408;19.174;2023-04-01T23:20:12;3.10;;;1.40;;
40971;SDS011;26701;47.408;19.174;2023-04-01T23:38:31;1.88;;;1.20;;
40971;SDS011;26701;47.408;19.174;2023-04-01T23:40:59;1.27;;;1.10;;
40971;SDS011;26701;47.408;19.174;2023-04-01T23:43:27;2.45;;;1.50;;
40971;SDS011;26701;47.408;19.174;2023-04-01T23:46:00;1.52;;;1.17;;
40971;SDS011;26701;47.408;19.174;2023-04-01T23:48:40;2.13;;;1.30;;
40971;SDS011;26701;47.408;19.174;2023-04-01T23:51:36;1.92;;;1.17;;
40971;SDS011;26701;47.408;19.174;2023-04-01T23:54:27;1.35;;;0.90;;
40971;SDS011;26701;47.408;19.174;2023-04-01T23:56:57;1.50;;;1.15;;
40971;SDS011;26701;47.408;19.174;2023-04-01T23:59:30;1.00;;;0.90;;
